Time;durP1;ratioP1;P1;durP2;ratioP2;P2;SDS_P1;SDS_P2;PMS_P1;PMS_P2;Temp;Humidity;BMP_temperature;BMP_pressure;BME280_temperature;BME280_humidity;BME280_pressure;Samples;Min_cycle;Max_cycle;Signal;HPM_P1;HPM_P2
2021/12/06 00:00:21;;;;;;;63.50;30.23;;;2.20;99.90;;;;;;5057802;28;20074;-84
2021/12/06 00:02:47;;;;;;;54.38;24.05;;;2.70;99.90;;;;;;5041836;28;20059;-85
2021/12/06 00:05:13;;;;;;;60.75;30.98;;;2.30;99.90;;;;;;5057923;28;20050;-84
2021/12/06 00:07:39;;;;;;;65.53;30.23;;;2.40;99.90;;;;;;5058434;28;20105;-84
2021/12/06 00:10:08;;;;;;;67.80;32.03;;;2.70;99.90;;;;;;5074402;28;20043;-85
2021/12/06 00:12:33;;;;;;;69.70;32.13;;;2.10;99.90;;;;;;5074817;28;20044;-84
2021/12/06 00:14:59;;;;;;;60.28;24.88;;;2.20;99.90;;;;;;5091555;28;20101;-85
2021/12/06 00:17:25;;;;;;;67.97;31.80;;;3.30;99.90;;;;;;5090866;28;20055;-85
2021/12/06 00:19:50;;;;;;;73.93;32.15;;;2.30;99.90;;;;;;5074703;28;20044;-84
2021/12/06 00:22:22;;;;;;;69.82;33.03;;;3.50;99.90;;;;;;5090978;28;20048;-85
2021/12/06 00:24:55;;;;;;;73.78;33.25;;;2.20;99.90;;;;;;5075434;28;20441;-85
2021/12/06 00:27:21;;;;;;;74.22;33.42;;;2.10;99.90;;;;;;5057407;28;20052;-85
2021/12/06 00:29:48;;;;;;;76.25;34.53;;;2.10;99.90;;;;;;5057979;28;20492;-85
2021/12/06 00:32:13;;;;;;;77.78;34.42;;;2.20;99.90;;;;;;5090551;28;20181;-84
2021/12/06 00:34:40;;;;;;;75.22;34.15;;;2.10;99.90;;;;;;5091014;28;20131;-85
2021/12/06 00:37:29;;;;;;;76.85;34.58;;;2.80;99.90;;;;;;5090262;28;20527;-85
2021/12/06 00:39:57;;;;;;;72.70;32.88;;;2.30;99.90;;;;;;5091250;28;20063;-85
2021/12/06 00:42:23;;;;;;;69.40;26.90;;;3.30;99.90;;;;;;5091721;28;20052;-85
2021/12/06 00:44:49;;;;;;;74.65;32.80;;;2.90;99.90;;;;;;5057475;28;20055;-85
2021/12/06 00:47:15;;;;;;;80.90;33.63;;;3.20;99.90;;;;;;5073623;28;20115;-84
2021/12/06 00:49:41;;;;;;;77.80;33.78;;;2.70;99.90;;;;;;5090932;28;20499;-84
2021/12/06 00:52:07;;;;;;;75.22;32.25;;;2.30;99.90;;;;;;5090664;28;20044;-86
2021/12/06 00:54:35;;;;;;;78.22;34.53;;;2.50;99.90;;;;;;5074015;28;20070;-85
2021/12/06 00:57:05;;;;;;;69.40;29.70;;;2.40;99.90;;;;;;5090791;28;20044;-84
2021/12/06 00:59:30;;;;;;;77.60;31.52;;;2.50;99.90;;;;;;5091401;28;20083;-85
2021/12/06 01:01:56;;;;;;;55.25;23.30;;;2.40;99.90;;;;;;5074026;28;20188;-85
2021/12/06 01:04:22;;;;;;;75.72;34.10;;;2.40;99.90;;;;;;5073123;28;20044;-85
2021/12/06 01:06:47;;;;;;;71.80;30.50;;;3.50;99.90;;;;;;5090293;28;20052;-85
2021/12/06 01:09:13;;;;;;;79.25;35.03;;;2.40;99.90;;;;;;5073092;28;20091;-85
2021/12/06 01:11:39;;;;;;;79.68;34.05;;;2.80;99.90;;;;;;5091732;28;20097;-86
2021/12/06 01:14:04;;;;;;;79.80;35.53;;;2.40;99.90;;;;;;5073291;28;20048;-85
2021/12/06 01:16:30;;;;;;;79.03;35.03;;;2.30;99.90;;;;;;5090749;28;20035;-85
2021/12/06 01:18:56;;;;;;;81.72;34.03;;;2.20;99.90;;;;;;5090249;28;20044;-85
2021/12/06 01:21:38;;;;;;;88.10;35.83;;;2.20;99.90;;;;;;5056484;28;20117;-85
2021/12/06 01:24:04;;;;;;;87.10;36.05;;;2.20;99.90;;;;;;5090260;28;20052;-85
2021/12/06 01:26:42;;;;;;;86.68;36.83;;;2.20;99.90;;;;;;5090799;28;20074;-82
2021/12/06 01:32:11;;;;;;;79.25;32.42;;;2.20;99.90;;;;;;5076182;28;20059;-84
2021/12/06 01:40:07;;;;;;;83.35;35.00;;;2.20;99.90;;;;;;5061990;28;20059;-84
2021/12/06 01:42:32;;;;;;;81.75;34.95;;;2.20;99.90;;;;;;5072676;28;20134;-83
2021/12/06 01:44:58;;;;;;;90.88;36.63;;;2.60;99.90;;;;;;5073252;28;20044;-84
2021/12/06 01:47:32;;;;;;;87.70;35.40;;;3.90;99.90;;;;;;5089520;28;20052;-85
2021/12/06 01:50:06;;;;;;;74.13;31.15;;;3.00;99.90;;;;;;5056751;28;20052;-84
2021/12/06 01:52:35;;;;;;;70.13;30.52;;;2.40;99.90;;;;;;5056630;28;20056;-84
2021/12/06 01:55:01;;;;;;;80.22;33.40;;;2.60;99.90;;;;;;5056600;28;20165;-84
2021/12/06 01:57:27;;;;;;;75.78;29.33;;;2.60;99.90;;;;;;5055825;28;20032;-84
2021/12/06 01:59:53;;;;;;;76.93;34.67;;;2.70;99.90;;;;;;5072711;28;20138;-84
2021/12/06 02:02:20;;;;;;;78.65;35.45;;;2.60;99.90;;;;;;5072166;28;20138;-85
2021/12/06 02:04:45;;;;;;;82.55;34.15;;;2.60;99.90;;;;;;5089661;28;20474;-84
2021/12/06 02:07:14;;;;;;;81.28;35.90;;;2.90;99.90;;;;;;5090852;28;20044;-85
2021/12/06 02:09:40;;;;;;;65.43;27.00;;;2.40;99.90;;;;;;5088645;28;20043;-85
2021/12/06 02:12:07;;;;;;;65.57;30.20;;;2.50;99.90;;;;;;5072830;28;20075;-84
2021/12/06 02:17:16;;;;;;;76.50;33.63;;;2.60;99.90;;;;;;5089669;28;20503;-85
2021/12/06 02:19:47;;;;;;;70.85;30.83;;;2.80;99.90;;;;;;5073727;28;20047;-85
2021/12/06 02:22:16;;;;;;;73.25;32.42;;;3.40;99.90;;;;;;5072913;28;20392;-85
2021/12/06 02:24:42;;;;;;;77.70;34.63;;;2.70;99.90;;;;;;5088976;28;20047;-85
2021/12/06 02:27:08;;;;;;;71.88;33.08;;;2.40;99.90;;;;;;5090423;28;20140;-85
2021/12/06 02:29:34;;;;;;;80.97;34.90;;;3.10;99.90;;;;;;5088834;28;20087;-85
2021/12/06 02:32:05;;;;;;;75.85;34.72;;;2.80;99.90;;;;;;5089468;28;20083;-85
2021/12/06 02:34:31;;;;;;;83.68;33.55;;;3.90;99.90;;;;;;5072774;28;20508;-85
2021/12/06 02:36:57;;;;;;;74.15;34.70;;;2.80;99.90;;;;;;5088922;28;20089;-85
2021/12/06 02:39:24;;;;;;;43.58;19.58;;;3.70;99.90;;;;;;5089912;28;20419;-86
2021/12/06 02:41:52;;;;;;;79.93;33.38;;;2.50;99.90;;;;;;5090318;28;20114;-84
2021/12/06 02:44:18;;;;;;;81.97;37.33;;;2.50;99.90;;;;;;5093349;28;20046;-84
2021/12/06 02:46:44;;;;;;;85.32;35.95;;;2.90;99.90;;;;;;5093813;28;20430;-85
2021/12/06 02:49:09;;;;;;;83.78;37.60;;;2.40;99.90;;;;;;5093176;28;20046;-84
2021/12/06 02:51:35;;;;;;;85.85;37.55;;;2.40;99.90;;;;;;5092651;28;20138;-84
2021/12/06 02:54:01;;;;;;;88.07;37.38;;;2.40;99.90;;;;;;5076452;28;20369;-84
2021/12/06 02:59:11;;;;;;;90.60;37.15;;;2.40;99.90;;;;;;5093025;28;20408;-84
2021/12/06 03:01:36;;;;;;;89.45;38.13;;;2.40;99.90;;;;;;5092923;28;20052;-85
2021/12/06 03:04:03;;;;;;;90.40;33.83;;;2.40;99.90;;;;;;5093678;28;20369;-84
2021/12/06 03:06:29;;;;;;;87.85;37.97;;;2.40;99.90;;;;;;5092575;28;20040;-84
2021/12/06 03:09:08;;;;;;;90.28;38.40;;;2.40;99.90;;;;;;5075980;28;20039;-84
2021/12/06 03:11:41;;;;;;;89.95;37.95;;;2.30;99.90;;;;;;5061282;28;20044;-84
2021/12/06 03:14:13;;;;;;;94.65;38.28;;;3.50;99.90;;;;;;5076585;28;20105;-84
2021/12/06 03:16:39;;;;;;;96.35;38.50;;;2.40;99.90;;;;;;5059099;28;20130;-84
2021/12/06 03:19:05;;;;;;;89.38;39.20;;;2.50;99.90;;;;;;5075754;28;20170;-84
2021/12/06 03:21:31;;;;;;;99.97;38.38;;;2.50;99.90;;;;;;5093644;28;20441;-84
2021/12/06 03:23:57;;;;;;;91.20;37.22;;;2.90;99.90;;;;;;5092688;28;20048;-84
2021/12/06 03:26:23;;;;;;;95.72;38.83;;;2.40;99.90;;;;;;5092428;28;20044;-84
2021/12/06 03:28:48;;;;;;;90.75;36.88;;;2.50;99.90;;;;;;5092075;28;20040;-84
2021/12/06 03:31:14;;;;;;;88.20;36.45;;;2.50;99.90;;;;;;5075328;28;20055;-83
2021/12/06 03:33:42;;;;;;;86.15;33.78;;;2.50;99.90;;;;;;5091849;28;20043;-84
2021/12/06 03:36:08;;;;;;;87.10;34.63;;;2.70;99.90;;;;;;5093296;28;20468;-85
2021/12/06 03:38:34;;;;;;;93.65;36.38;;;2.50;99.90;;;;;;5091446;28;20571;-85
2021/12/06 03:41:00;;;;;;;89.60;33.22;;;2.50;99.90;;;;;;5093284;28;20123;-84
2021/12/06 03:43:25;;;;;;;86.22;35.47;;;2.50;99.90;;;;;;5075522;28;20127;-84
2021/12/06 03:45:51;;;;;;;84.40;34.08;;;2.50;99.90;;;;;;5092781;28;20161;-85
2021/12/06 03:48:17;;;;;;;88.25;35.72;;;2.50;99.90;;;;;;5075325;28;20044;-84
2021/12/06 03:50:43;;;;;;;89.18;36.80;;;2.60;99.90;;;;;;5091395;28;20051;-84
2021/12/06 03:53:08;;;;;;;90.78;37.45;;;2.50;99.90;;;;;;5075118;28;20047;-84
2021/12/06 03:55:34;;;;;;;94.70;36.42;;;2.60;99.90;;;;;;5092440;28;20439;-85
2021/12/06 03:57:59;;;;;;;95.28;38.40;;;2.90;99.90;;;;;;5093340;28;20046;-84
2021/12/06 04:00:25;;;;;;;98.38;38.47;;;2.70;99.90;;;;;;5091904;28;20287;-85
2021/12/06 04:02:51;;;;;;;98.32;39.63;;;2.40;99.90;;;;;;5091325;28;20036;-85
2021/12/06 04:05:16;;;;;;;95.22;37.17;;;2.40;99.90;;;;;;5093273;28;20089;-85
2021/12/06 04:07:42;;;;;;;96.47;38.33;;;2.40;99.90;;;;;;5091236;28;20083;-85
2021/12/06 04:10:08;;;;;;;94.28;36.97;;;3.70;99.90;;;;;;5091605;28;20048;-86
2021/12/06 04:12:35;;;;;;;101.60;38.67;;;2.40;99.90;;;;;;5074363;28;20108;-86
2021/12/06 04:15:00;;;;;;;98.30;38.42;;;2.70;99.90;;;;;;5074842;28;20040;-85
2021/12/06 04:17:26;;;;;;;99.30;37.63;;;2.50;99.90;;;;;;5092726;28;22085;-85
2021/12/06 04:19:52;;;;;;;104.07;40.47;;;2.40;99.90;;;;;;5091442;28;20051;-86
2021/12/06 04:22:18;;;;;;;100.25;37.50;;;3.20;99.90;;;;;;5091348;28;20092;-85
2021/12/06 04:24:44;;;;;;;101.88;39.72;;;2.90;99.90;;;;;;5092312;28;20423;-84
2021/12/06 04:27:14;;;;;;;105.60;38.35;;;2.50;99.90;;;;;;5074597;28;20060;-86
2021/12/06 04:29:46;;;;;;;107.70;39.53;;;2.50;99.90;;;;;;5091030;28;20054;-85
2021/12/06 04:32:11;;;;;;;108.68;40.00;;;3.10;99.90;;;;;;5091376;28;20048;-85
2021/12/06 04:34:37;;;;;;;96.32;33.97;;;2.50;99.90;;;;;;5090634;28;20152;-85
2021/12/06 04:37:03;;;;;;;106.40;38.72;;;2.80;99.90;;;;;;5074115;28;20200;-85
2021/12/06 04:39:29;;;;;;;108.97;39.80;;;2.60;99.90;;;;;;5074421;28;20127;-85
2021/12/06 04:41:55;;;;;;;110.60;40.78;;;4.20;99.90;;;;;;5073962;28;20048;-85
2021/12/06 04:44:21;;;;;;;107.47;38.30;;;2.50;99.90;;;;;;5074256;28;20059;-85
2021/12/06 04:46:47;;;;;;;111.78;39.75;;;2.60;99.90;;;;;;5091572;28;20044;-85
2021/12/06 04:49:13;;;;;;;127.68;42.83;;;3.50;99.90;;;;;;5090886;28;20450;-86
2021/12/06 04:51:40;;;;;;;106.50;39.67;;;2.50;99.90;;;;;;5091711;28;20056;-85
2021/12/06 04:54:05;;;;;;;107.22;39.72;;;2.80;99.90;;;;;;5074189;28;20720;-85
2021/12/06 04:56:43;;;;;;;105.95;39.00;;;2.50;99.90;;;;;;5090773;28;20047;-85
2021/12/06 04:59:37;;;;;;;106.60;38.35;;;2.60;99.90;;;;;;5074197;28;20101;-84
2021/12/06 05:02:06;;;;;;;101.68;37.92;;;2.60;99.90;;;;;;5090368;28;20101;-85
2021/12/06 05:04:33;;;;;;;101.88;37.90;;;3.30;99.90;;;;;;5106862;28;20048;-85
2021/12/06 05:07:08;;;;;;;117.20;40.25;;;2.50;99.90;;;;;;5073576;28;20052;-84
2021/12/06 05:09:36;;;;;;;103.75;38.78;;;3.10;99.90;;;;;;5073673;28;20089;-84
2021/12/06 05:12:03;;;;;;;106.10;38.22;;;3.10;99.90;;;;;;5056673;28;20058;-84
2021/12/06 05:14:28;;;;;;;119.35;41.25;;;2.50;99.90;;;;;;5090533;28;20074;-84
2021/12/06 05:16:54;;;;;;;113.25;40.00;;;3.70;99.90;;;;;;5091066;28;20048;-84
2021/12/06 05:19:20;;;;;;;117.15;38.75;;;2.60;99.90;;;;;;5073338;28;20131;-84
2021/12/06 05:21:46;;;;;;;108.90;37.47;;;2.60;99.90;;;;;;5090878;28;20071;-84
2021/12/06 05:24:11;;;;;;;109.53;38.28;;;2.50;99.90;;;;;;5073599;28;20078;-84
2021/12/06 05:26:37;;;;;;;110.57;37.78;;;2.60;99.90;;;;;;5091656;28;20081;-84
2021/12/06 05:29:06;;;;;;;110.22;38.70;;;2.70;99.90;;;;;;5072679;28;20150;-84
2021/12/06 05:31:38;;;;;;;113.20;39.58;;;2.60;99.90;;;;;;5073519;28;20047;-85
2021/12/06 05:34:09;;;;;;;114.55;40.53;;;2.60;99.90;;;;;;5057003;28;20059;-84
2021/12/06 05:36:34;;;;;;;107.53;38.10;;;2.60;99.90;;;;;;5090725;28;20504;-84
2021/12/06 05:39:00;;;;;;;110.32;39.70;;;3.30;99.90;;;;;;5088991;28;20047;-84
2021/12/06 05:41:26;;;;;;;113.78;40.33;;;3.00;99.90;;;;;;5073189;28;20063;-85
2021/12/06 05:43:51;;;;;;;115.25;39.47;;;2.60;99.90;;;;;;5089499;28;20048;-86
2021/12/06 05:46:17;;;;;;;103.38;36.15;;;2.60;99.90;;;;;;5073394;28;20052;-87
2021/12/06 05:48:43;;;;;;;111.57;39.15;;;2.60;99.90;;;;;;5056731;28;20051;-86
2021/12/06 05:51:08;;;;;;;104.13;39.15;;;2.60;99.90;;;;;;5056075;28;20050;-87
2021/12/06 05:53:34;;;;;;;118.82;38.67;;;3.60;99.90;;;;;;5089769;28;20051;-87
2021/12/06 05:56:00;;;;;;;100.53;33.45;;;2.60;99.90;;;;;;5072356;28;20048;-86
2021/12/06 05:58:27;;;;;;;123.88;39.90;;;2.60;99.90;;;;;;5089427;28;20075;-86
2021/12/06 06:00:53;;;;;;;129.30;40.30;;;2.60;99.90;;;;;;5072665;28;20121;-87
2021/12/06 06:03:19;;;;;;;127.45;41.20;;;2.60;99.90;;;;;;5089978;28;20048;-86
2021/12/06 06:05:45;;;;;;;127.70;41.25;;;2.60;99.90;;;;;;5073027;28;20047;-85
2021/12/06 06:08:11;;;;;;;135.20;40.45;;;2.50;99.90;;;;;;5072486;28;20047;-86
2021/12/06 06:10:36;;;;;;;136.90;42.17;;;2.60;99.90;;;;;;5072818;28;20079;-85
2021/12/06 06:13:03;;;;;;;138.65;42.72;;;2.60;99.90;;;;;;5088793;28;20040;-85
2021/12/06 06:15:29;;;;;;;140.73;41.13;;;2.60;99.90;;;;;;5073021;28;20074;-85
2021/12/06 06:17:56;;;;;;;145.50;43.00;;;2.60;99.90;;;;;;5090433;28;20040;-85
2021/12/06 06:20:23;;;;;;;146.55;43.72;;;3.40;99.90;;;;;;5091108;28;20079;-85
2021/12/06 06:22:48;;;;;;;139.93;42.13;;;3.30;99.90;;;;;;5089520;28;20095;-86
2021/12/06 06:25:15;;;;;;;143.75;44.28;;;2.80;99.90;;;;;;5072544;28;20087;-85
2021/12/06 06:27:42;;;;;;;139.88;39.47;;;3.60;99.90;;;;;;5090737;28;20044;-85
2021/12/06 06:30:08;;;;;;;129.50;40.78;;;3.20;99.90;;;;;;5088839;28;20425;-85
2021/12/06 06:32:34;;;;;;;137.50;39.50;;;2.70;99.90;;;;;;5056137;28;20052;-85
2021/12/06 06:34:59;;;;;;;129.88;40.15;;;3.30;99.90;;;;;;5071918;28;20056;-85
2021/12/06 06:37:25;;;;;;;130.13;41.33;;;3.70;99.90;;;;;;5072051;28;20116;-85
2021/12/06 06:39:51;;;;;;;117.88;38.13;;;3.40;99.90;;;;;;5088896;28;20047;-85
2021/12/06 06:42:17;;;;;;;105.97;37.17;;;2.60;99.90;;;;;;5090441;28;20071;-84
2021/12/06 06:44:42;;;;;;;126.82;38.97;;;2.80;99.90;;;;;;5090248;28;20044;-84
2021/12/06 06:47:08;;;;;;;122.55;39.10;;;2.70;99.90;;;;;;5105408;28;20399;-84
2021/12/06 06:49:34;;;;;;;131.55;40.42;;;2.70;99.90;;;;;;5090403;28;20130;-84
2021/12/06 06:52:00;;;;;;;125.95;39.20;;;3.50;99.90;;;;;;5088829;28;20044;-84
2021/12/06 06:54:25;;;;;;;108.28;36.63;;;2.70;99.90;;;;;;5089511;28;20047;-84
2021/12/06 06:56:51;;;;;;;113.18;36.38;;;3.60;99.90;;;;;;5072439;28;20069;-84
2021/12/06 06:59:17;;;;;;;117.70;38.05;;;3.10;99.90;;;;;;5089836;28;20490;-84
2021/12/06 07:01:45;;;;;;;121.47;38.42;;;2.60;99.90;;;;;;5055858;28;20052;-85
2021/12/06 07:04:12;;;;;;;100.32;33.95;;;2.60;99.90;;;;;;5089594;28;20048;-85
2021/12/06 07:06:38;;;;;;;122.68;38.63;;;2.60;99.90;;;;;;5089294;28;20044;-84
2021/12/06 07:09:03;;;;;;;105.75;32.97;;;2.60;99.90;;;;;;5088622;28;20052;-85
2021/12/06 07:11:29;;;;;;;118.05;37.13;;;2.60;99.90;;;;;;5090353;28;20052;-85
2021/12/06 07:13:55;;;;;;;123.03;38.10;;;2.60;99.90;;;;;;5088622;28;20044;-85
2021/12/06 07:16:21;;;;;;;116.38;35.95;;;2.70;99.90;;;;;;5088719;28;20048;-85
2021/12/06 07:18:47;;;;;;;128.10;37.95;;;2.60;99.90;;;;;;5055405;28;20046;-85
2021/12/06 07:21:14;;;;;;;121.60;38.70;;;2.60;99.90;;;;;;5088207;28;20048;-84
2021/12/06 07:23:41;;;;;;;113.20;36.13;;;2.70;99.90;;;;;;5088807;28;20052;-85
2021/12/06 07:26:08;;;;;;;131.27;39.25;;;2.80;99.90;;;;;;5071471;28;20063;-84
2021/12/06 07:28:33;;;;;;;126.68;39.78;;;3.00;99.90;;;;;;5090754;28;20048;-84
2021/12/06 07:30:59;;;;;;;135.15;37.10;;;2.60;99.90;;;;;;5091806;28;20104;-85
2021/12/06 07:33:29;;;;;;;129.52;39.95;;;2.70;99.90;;;;;;5092549;28;20122;-84
2021/12/06 07:35:55;;;;;;;128.75;38.15;;;2.60;99.90;;;;;;5093287;28;20545;-85
2021/12/06 07:38:21;;;;;;;125.53;38.92;;;2.90;99.90;;;;;;5091864;28;20101;-84
2021/12/06 07:40:50;;;;;;;116.78;37.40;;;3.00;99.90;;;;;;5109193;28;20048;-83
2021/12/06 07:43:17;;;;;;;117.57;36.63;;;2.60;99.90;;;;;;5075075;28;20095;-84
2021/12/06 07:45:42;;;;;;;111.38;34.70;;;3.80;99.90;;;;;;5093573;28;20047;-84
2021/12/06 07:48:08;;;;;;;113.35;33.83;;;2.70;99.90;;;;;;5092814;28;20044;-84
2021/12/06 07:50:34;;;;;;;114.20;36.80;;;2.70;99.90;;;;;;5091979;28;20115;-84
2021/12/06 07:52:59;;;;;;;119.05;38.05;;;2.70;99.90;;;;;;5091828;28;20044;-84
2021/12/06 07:55:31;;;;;;;105.82;35.97;;;2.90;99.90;;;;;;5092842;28;20570;-84
2021/12/06 07:57:58;;;;;;;111.03;38.08;;;2.60;99.90;;;;;;5091829;28;20048;-84
2021/12/06 08:00:24;;;;;;;112.63;38.67;;;3.50;99.90;;;;;;5091252;28;20105;-84
2021/12/06 08:02:50;;;;;;;101.15;33.63;;;3.10;99.90;;;;;;5092867;28;20052;-84
2021/12/06 08:05:30;;;;;;;89.15;32.22;;;2.70;99.90;;;;;;5090948;28;20199;-84
2021/12/06 08:08:01;;;;;;;94.47;32.42;;;2.70;99.90;;;;;;5076802;28;20110;-85
2021/12/06 08:10:27;;;;;;;89.80;32.67;;;2.70;99.90;;;;;;5092696;28;20121;-84
2021/12/06 08:12:53;;;;;;;85.03;33.67;;;2.70;99.90;;;;;;5091486;28;20472;-84
2021/12/06 08:15:18;;;;;;;90.90;32.13;;;2.70;99.90;;;;;;5073760;28;20043;-84
2021/12/06 08:17:44;;;;;;;85.95;31.33;;;2.70;99.90;;;;;;5074089;28;20036;-84
2021/12/06 08:20:10;;;;;;;80.72;30.67;;;3.00;99.90;;;;;;5091860;28;20118;-84
2021/12/06 08:22:36;;;;;;;82.88;31.58;;;2.70;99.90;;;;;;5091396;28;20515;-84
2021/12/06 08:25:02;;;;;;;86.55;32.03;;;3.10;99.90;;;;;;5074512;28;20044;-85
2021/12/06 08:27:28;;;;;;;83.30;31.50;;;2.70;99.90;;;;;;5090536;28;20075;-85
2021/12/06 08:29:53;;;;;;;80.38;29.70;;;2.80;99.90;;;;;;5074354;28;20491;-85
2021/12/06 08:32:19;;;;;;;77.95;30.67;;;2.80;99.90;;;;;;5091726;28;20495;-85
2021/12/06 08:34:45;;;;;;;84.68;31.05;;;2.70;99.90;;;;;;5091141;28;20044;-85
2021/12/06 08:37:11;;;;;;;80.85;28.88;;;2.80;99.90;;;;;;5091413;28;20071;-86
2021/12/06 08:39:37;;;;;;;72.47;28.90;;;2.70;99.90;;;;;;5090922;28;20141;-85
2021/12/06 08:42:04;;;;;;;73.13;29.63;;;2.70;99.90;;;;;;5090786;28;20109;-85
2021/12/06 08:44:29;;;;;;;80.50;30.67;;;2.70;99.90;;;;;;5091272;28;20043;-85
2021/12/06 08:46:55;;;;;;;72.68;29.05;;;2.60;99.90;;;;;;5073717;28;20048;-85
2021/12/06 08:49:21;;;;;;;78.70;30.27;;;3.00;99.90;;;;;;5069705;28;20044;-85
2021/12/06 08:51:49;;;;;;;76.07;29.42;;;2.60;99.90;;;;;;5091991;28;20047;-84
2021/12/06 08:54:16;;;;;;;75.35;30.83;;;2.60;99.90;;;;;;5090065;28;20044;-85
2021/12/06 08:56:42;;;;;;;74.50;30.63;;;2.70;99.90;;;;;;5090560;28;20127;-89
2021/12/06 08:59:08;;;;;;;75.70;30.73;;;2.70;99.90;;;;;;5090349;28;20052;-84
2021/12/06 09:01:34;;;;;;;68.43;28.15;;;2.70;99.90;;;;;;5090278;28;20044;-87
2021/12/06 09:04:00;;;;;;;66.75;27.55;;;2.70;99.90;;;;;;5091550;28;20044;-87
2021/12/06 09:06:26;;;;;;;72.80;29.33;;;2.70;99.90;;;;;;5089785;28;20476;-86
2021/12/06 09:08:51;;;;;;;68.57;29.02;;;2.70;99.90;;;;;;5073784;28;20056;-86
2021/12/06 09:11:17;;;;;;;67.18;28.20;;;3.10;99.90;;;;;;5091195;28;20052;-86
2021/12/06 09:13:43;;;;;;;66.72;27.80;;;3.00;99.90;;;;;;5090269;28;20047;-87
2021/12/06 09:16:10;;;;;;;59.35;24.70;;;2.80;99.90;;;;;;5073566;28;20138;-87
2021/12/06 09:18:38;;;;;;;58.92;25.95;;;2.70;99.90;;;;;;5089951;28;20040;-86
2021/12/06 09:21:05;;;;;;;54.08;24.95;;;3.00;99.90;;;;;;5090350;28;20048;-86
2021/12/06 09:23:31;;;;;;;60.35;27.30;;;2.80;99.90;;;;;;5089336;28;20048;-86
2021/12/06 09:25:57;;;;;;;57.70;24.55;;;2.70;99.90;;;;;;5073480;28;20101;-86
2021/12/06 09:28:23;;;;;;;70.10;27.23;;;2.70;99.90;;;;;;5090910;28;20040;-86
2021/12/06 09:30:48;;;;;;;60.67;24.27;;;2.70;99.90;;;;;;5089857;28;20048;-86
2021/12/06 09:33:15;;;;;;;61.83;25.63;;;2.80;99.90;;;;;;5089654;28;20122;-85
2021/12/06 09:35:43;;;;;;;64.93;29.13;;;3.30;99.90;;;;;;5072980;28;20087;-87
2021/12/06 09:38:09;;;;;;;64.90;27.13;;;2.60;99.90;;;;;;5090018;28;20502;-86
2021/12/06 09:40:37;;;;;;;56.90;25.55;;;3.50;99.90;;;;;;5089274;28;20052;-86
2021/12/06 09:43:04;;;;;;;61.70;25.85;;;2.70;99.90;;;;;;5040062;28;20499;-86
2021/12/06 09:45:30;;;;;;;61.80;26.17;;;2.10;99.90;;;;;;5072417;28;20052;-86
2021/12/06 09:47:56;;;;;;;61.03;25.80;;;3.20;99.90;;;;;;5089711;28;20145;-86
2021/12/06 09:50:35;;;;;;;60.33;25.38;;;2.60;99.90;;;;;;5089661;28;20044;-87
2021/12/06 09:53:02;;;;;;;64.85;26.55;;;2.70;99.90;;;;;;5090621;28;20480;-86
2021/12/06 09:55:29;;;;;;;62.25;24.65;;;3.50;99.90;;;;;;5090158;28;20483;-86
2021/12/06 09:57:56;;;;;;;62.03;24.80;;;2.80;99.90;;;;;;5089375;28;20043;-86
2021/12/06 10:00:23;;;;;;;64.93;26.42;;;2.70;99.90;;;;;;5090106;28;20490;-87
2021/12/06 10:02:49;;;;;;;63.97;25.67;;;2.70;99.90;;;;;;5072935;28;20060;-87
2021/12/06 10:05:14;;;;;;;64.47;25.08;;;3.00;99.90;;;;;;5089189;28;20689;-86
2021/12/06 10:07:40;;;;;;;60.40;24.48;;;2.80;99.90;;;;;;5090197;28;20056;-86
2021/12/06 10:10:07;;;;;;;54.13;24.73;;;2.90;99.90;;;;;;5072541;28;20121;-86
2021/12/06 10:12:33;;;;;;;56.85;24.85;;;2.80;99.90;;;;;;5088557;28;20070;-87
2021/12/06 10:15:02;;;;;;;56.70;25.17;;;2.80;99.90;;;;;;5089367;28;20048;-86
2021/12/06 10:17:28;;;;;;;57.72;25.73;;;3.00;99.90;;;;;;5088556;28;20456;-86
2021/12/06 10:19:54;;;;;;;62.45;26.08;;;2.80;99.90;;;;;;5090365;28;20088;-86
2021/12/06 10:22:21;;;;;;;59.58;26.45;;;2.80;99.90;;;;;;5089980;28;20040;-84
2021/12/06 10:24:52;;;;;;;63.45;26.67;;;2.80;99.90;;;;;;5090497;28;20048;-87
2021/12/06 10:27:17;;;;;;;61.70;27.20;;;2.90;99.90;;;;;;5055846;28;20046;-86
2021/12/06 10:29:53;;;;;;;65.15;28.35;;;2.90;99.90;;;;;;5088447;28;20127;-87
2021/12/06 10:32:21;;;;;;;60.17;27.45;;;2.90;99.90;;;;;;5089063;28;20464;-83
2021/12/06 10:34:50;;;;;;;62.63;28.45;;;3.00;99.90;;;;;;5088791;28;20058;-86
2021/12/06 10:37:39;;;;;;;67.25;28.30;;;2.90;99.90;;;;;;5072311;28;20104;-85
2021/12/06 10:40:07;;;;;;;70.75;28.95;;;2.90;99.90;;;;;;5090573;28;20055;-86
2021/12/06 10:42:36;;;;;;;71.68;31.13;;;2.90;99.90;;;;;;5088517;28;20113;-87
2021/12/06 10:45:06;;;;;;;72.93;33.35;;;2.90;99.90;;;;;;5089323;28;20048;-86
2021/12/06 10:47:32;;;;;;;76.03;32.38;;;2.90;99.90;;;;;;5089250;28;20048;-86
2021/12/06 10:50:13;;;;;;;75.25;33.55;;;3.10;99.90;;;;;;5090420;28;20130;-87
2021/12/06 10:52:48;;;;;;;75.15;32.55;;;3.00;99.90;;;;;;5088335;28;20056;-87
2021/12/06 10:55:14;;;;;;;68.07;32.25;;;3.10;99.90;;;;;;5088934;28;20484;-87
2021/12/06 10:57:51;;;;;;;61.83;28.95;;;3.00;99.90;;;;;;5055038;28;20051;-87
2021/12/06 11:00:32;;;;;;;64.53;28.83;;;3.00;99.90;;;;;;5072841;28;20048;-86
2021/12/06 11:02:57;;;;;;;57.30;26.98;;;3.00;99.90;;;;;;5056900;28;20048;-87
2021/12/06 11:05:27;;;;;;;56.17;25.60;;;3.00;99.90;;;;;;5093917;28;20044;-85
2021/12/06 11:08:12;;;;;;;53.50;26.70;;;3.00;99.90;;;;;;5094015;28;20480;-87
2021/12/06 11:10:43;;;;;;;48.83;24.77;;;3.00;99.90;;;;;;5075600;28;20051;-85
2021/12/06 11:13:23;;;;;;;52.58;25.02;;;3.10;99.90;;;;;;5092489;28;20048;-87
2021/12/06 11:16:11;;;;;;;54.00;23.80;;;3.80;99.90;;;;;;5075625;28;20365;-86
2021/12/06 11:18:48;;;;;;;50.92;22.73;;;3.20;99.90;;;;;;5092034;28;20048;-85
2021/12/06 11:21:33;;;;;;;52.10;22.75;;;3.10;99.90;;;;;;5092737;28;20051;-86
2021/12/06 11:24:02;;;;;;;46.45;22.25;;;3.10;99.90;;;;;;5093975;28;20086;-87
2021/12/06 11:26:28;;;;;;;47.45;21.40;;;3.10;99.90;;;;;;5092159;28;20583;-85
2021/12/06 11:28:53;;;;;;;42.67;21.58;;;2.00;99.90;;;;;;5092143;28;20075;-85
2021/12/06 11:31:19;;;;;;;41.95;20.30;;;3.10;99.90;;;;;;5092201;28;20131;-88
2021/12/06 11:33:56;;;;;;;40.65;21.27;;;3.10;99.90;;;;;;5074767;28;20545;-86
2021/12/06 11:36:23;;;;;;;37.95;20.20;;;3.20;99.90;;;;;;5059883;28;20188;-87
2021/12/06 11:38:49;;;;;;;44.95;22.30;;;3.40;99.90;;;;;;5091657;28;20044;-87
2021/12/06 11:41:15;;;;;;;42.80;20.45;;;3.30;99.90;;;;;;5093496;28;20044;-87
2021/12/06 11:43:41;;;;;;;39.17;20.60;;;3.30;99.90;;;;;;5108644;28;20120;-85
2021/12/06 11:46:08;;;;;;;38.35;19.23;;;3.50;99.90;;;;;;5092131;28;20052;-86
2021/12/06 11:48:37;;;;;;;39.38;21.25;;;3.30;99.90;;;;;;5091718;28;20056;-86
2021/12/06 11:51:16;;;;;;;39.75;21.13;;;3.40;99.90;;;;;;5042651;28;20079;-86
2021/12/06 11:53:58;;;;;;;37.83;20.88;;;3.30;99.90;;;;;;5074667;28;20400;-85
2021/12/06 11:56:23;;;;;;;37.85;20.63;;;3.40;99.90;;;;;;5075505;28;20109;-86
2021/12/06 11:58:51;;;;;;;45.63;24.00;;;3.40;99.90;;;;;;5098075;28;20742;-86
2021/12/06 12:01:26;;;;;;;44.25;21.50;;;3.80;99.90;;;;;;5098247;28;20059;-87
2021/12/06 12:03:52;;;;;;;;;;;3.40;99.90;;;;;;5091278;28;20313;-86
2021/12/06 12:06:37;;;;;;;43.15;21.35;;;3.40;99.90;;;;;;5091779;28;19924;-85
2021/12/06 12:09:22;;;;;;;46.90;23.70;;;3.30;99.90;;;;;;5091416;28;20048;-86
2021/12/06 12:12:23;;;;;;;43.22;22.58;;;3.40;99.90;;;;;;5074282;28;20499;-85
2021/12/06 12:14:57;;;;;;;41.75;23.45;;;3.80;99.90;;;;;;5090773;28;20058;-87
2021/12/06 12:17:25;;;;;;;47.33;24.83;;;3.50;99.90;;;;;;5075569;28;20052;-86
2021/12/06 12:19:52;;;;;;;48.22;24.45;;;3.50;99.90;;;;;;5074297;28;20151;-86
2021/12/06 12:22:19;;;;;;;49.75;24.05;;;3.60;99.90;;;;;;5058109;28;20055;-87
2021/12/06 12:24:48;;;;;;;47.75;24.38;;;4.10;99.90;;;;;;5057832;28;20075;-86
2021/12/06 12:27:23;;;;;;;46.38;24.83;;;3.60;99.90;;;;;;5075003;28;20523;-86
2021/12/06 12:29:50;;;;;;;48.65;24.73;;;3.60;99.90;;;;;;5075367;28;20091;-86
2021/12/06 12:32:15;;;;;;;52.22;25.58;;;3.80;99.90;;;;;;5074323;28;20048;-84
2021/12/06 12:34:42;;;;;;;49.17;26.13;;;3.70;99.90;;;;;;5068911;28;20048;-84
2021/12/06 12:37:09;;;;;;;50.13;25.50;;;3.70;99.90;;;;;;5069882;28;20562;-83
2021/12/06 12:39:35;;;;;;;49.00;24.27;;;3.80;99.90;;;;;;5036176;28;20481;-83
2021/12/06 12:42:02;;;;;;;45.58;24.02;;;3.80;99.90;;;;;;5069675;28;20143;-85
2021/12/06 12:44:50;;;;;;;51.40;24.88;;;3.80;99.90;;;;;;5054018;28;20492;-85
2021/12/06 12:47:17;;;;;;;45.03;22.83;;;3.80;99.90;;;;;;5071837;28;20048;-83
2021/12/06 12:49:48;;;;;;;44.17;23.00;;;3.80;99.90;;;;;;5071527;28;20075;-86